Time;durP1;ratioP1;P1;durP2;ratioP2;P2;SDS_P1;SDS_P2;PMS_P1;PMS_P2;Temp;Humidity;BMP_temperature;BMP_pressure;BME280_temperature;BME280_humidity;BME280_pressure;Samples;Min_cycle;Max_cycle;Signal;HPM_P1;HPM_P2
2023/05/15 00:02:13;;;;;;;10.88;7.80;;;14.90;99.90;;;;;;5061950;28;20530;-75
2023/05/15 00:04:38;;;;;;;12.73;8.07;;;14.90;99.90;;;;;;5062344;28;20021;-74
2023/05/15 00:07:04;;;;;;;11.77;8.18;;;14.90;99.90;;;;;;5062574;28;20417;-74
2023/05/15 00:09:30;;;;;;;9.95;7.95;;;15.00;99.90;;;;;;5061572;28;20091;-75
2023/05/15 00:11:55;;;;;;;10.93;8.30;;;14.80;99.90;;;;;;5062381;28;20744;-74
2023/05/15 00:14:21;;;;;;;9.18;7.82;;;15.00;99.90;;;;;;5061999;28;20025;-75
2023/05/15 00:16:46;;;;;;;10.27;7.88;;;14.80;99.90;;;;;;5059922;28;20028;-73
2023/05/15 00:19:12;;;;;;;13.57;8.70;;;14.80;99.90;;;;;;5061368;28;20060;-75
2023/05/15 00:21:37;;;;;;;10.63;8.50;;;14.80;99.90;;;;;;5061864;28;20017;-73
2023/05/15 00:24:03;;;;;;;13.13;8.68;;;14.70;99.90;;;;;;5060824;28;20020;-73
2023/05/15 00:26:29;;;;;;;10.57;8.48;;;14.70;99.90;;;;;;5062297;28;20089;-73
2023/05/15 00:28:55;;;;;;;14.75;8.70;;;14.70;99.90;;;;;;5059895;28;20576;-74
2023/05/15 00:31:21;;;;;;;16.08;8.88;;;14.60;99.90;;;;;;5060862;28;20049;-74
2023/05/15 00:33:46;;;;;;;14.07;8.93;;;14.60;99.90;;;;;;5061861;28;20029;-73
2023/05/15 00:36:12;;;;;;;12.95;9.10;;;14.60;99.90;;;;;;5061451;28;20047;-73
2023/05/15 00:38:37;;;;;;;12.45;9.25;;;14.50;99.90;;;;;;5061912;28;20033;-75
2023/05/15 00:41:08;;;;;;;14.77;9.27;;;14.50;99.90;;;;;;5060723;28;20036;-73
2023/05/15 00:43:37;;;;;;;13.05;9.38;;;14.40;99.90;;;;;;5061220;28;20044;-73
2023/05/15 00:46:03;;;;;;;14.23;9.82;;;14.40;99.90;;;;;;5061380;28;20057;-73
2023/05/15 00:48:30;;;;;;;13.85;9.30;;;14.40;99.90;;;;;;5060278;28;20095;-74
2023/05/15 00:50:57;;;;;;;14.45;9.52;;;14.30;99.90;;;;;;5060841;28;20028;-74
2023/05/15 00:53:24;;;;;;;13.00;9.18;;;14.30;99.90;;;;;;5059927;28;20028;-74
2023/05/15 00:55:51;;;;;;;16.65;9.65;;;14.30;99.90;;;;;;5061469;28;20013;-73
2023/05/15 00:58:20;;;;;;;15.50;10.18;;;14.30;99.90;;;;;;5060017;28;20096;-74
2023/05/15 01:00:48;;;;;;;16.02;9.20;;;14.20;99.90;;;;;;5060027;28;20032;-73
2023/05/15 01:03:14;;;;;;;16.08;9.63;;;14.20;99.90;;;;;;5061195;28;20052;-74
2023/05/15 01:05:39;;;;;;;18.00;10.35;;;14.20;99.90;;;;;;5060939;28;20021;-74
2023/05/15 01:08:47;;;;;;;14.48;10.20;;;14.20;99.90;;;;;;5061383;28;20025;-73
2023/05/15 01:11:14;;;;;;;13.15;9.52;;;14.20;99.90;;;;;;5054010;28;20037;-73
2023/05/15 01:13:40;;;;;;;14.57;10.00;;;14.20;99.90;;;;;;5059978;28;20471;-73
2023/05/15 01:16:07;;;;;;;13.30;9.55;;;14.20;99.90;;;;;;5061198;28;20406;-74
2023/05/15 01:18:33;;;;;;;15.50;10.38;;;14.10;99.90;;;;;;5060872;28;20025;-74
2023/05/15 01:21:20;;;;;;;17.15;10.82;;;14.10;99.90;;;;;;5061260;28;20025;-74
2023/05/15 01:24:08;;;;;;;13.00;9.50;;;14.10;99.90;;;;;;5060900;28;20041;-73
2023/05/15 01:27:07;;;;;;;16.92;9.63;;;14.10;99.90;;;;;;5059903;28;20044;-74
2023/05/15 01:29:48;;;;;;;17.38;10.68;;;14.10;99.90;;;;;;5055016;28;20049;-73
2023/05/15 01:32:46;;;;;;;15.55;10.95;;;14.10;99.90;;;;;;5060266;28;20091;-73
2023/05/15 01:35:33;;;;;;;17.20;10.82;;;14.10;99.90;;;;;;5050206;28;20482;-73
2023/05/15 01:38:20;;;;;;;15.80;10.93;;;14.10;99.90;;;;;;5059547;28;20032;-74
2023/05/15 01:40:48;;;;;;;20.45;11.95;;;14.10;99.90;;;;;;5059091;28;20033;-73
2023/05/15 01:43:20;;;;;;;18.13;12.07;;;14.10;99.90;;;;;;5059576;28;20025;-74
2023/05/15 01:45:46;;;;;;;15.98;11.82;;;14.00;99.90;;;;;;5060410;28;20454;-73
2023/05/15 01:48:14;;;;;;;17.02;11.82;;;13.90;99.90;;;;;;5059925;28;20035;-74
2023/05/15 01:50:41;;;;;;;20.73;12.00;;;13.90;99.90;;;;;;5060875;28;20080;-74
2023/05/15 01:53:09;;;;;;;16.70;12.00;;;13.80;99.90;;;;;;5058725;28;20788;-75
2023/05/15 01:55:36;;;;;;;15.95;11.82;;;13.80;99.90;;;;;;5059051;28;20029;-74
2023/05/15 01:58:03;;;;;;;17.45;12.45;;;13.70;99.90;;;;;;5060597;28;20029;-75
2023/05/15 02:00:29;;;;;;;19.17;12.30;;;13.60;99.90;;;;;;5060121;28;20021;-75
2023/05/15 02:02:57;;;;;;;16.65;11.82;;;13.60;99.90;;;;;;5060461;28;20040;-74
2023/05/15 02:05:24;;;;;;;16.80;11.77;;;13.60;99.90;;;;;;5058807;28;20088;-75
2023/05/15 02:07:50;;;;;;;19.77;12.48;;;13.60;99.90;;;;;;5058701;28;20029;-75
2023/05/15 02:10:17;;;;;;;17.25;11.93;;;13.50;99.90;;;;;;5058801;28;21028;-74
2023/05/15 02:12:43;;;;;;;19.02;12.18;;;13.50;99.90;;;;;;5060136;28;20040;-74
2023/05/15 02:15:10;;;;;;;19.05;12.82;;;13.40;99.90;;;;;;5058851;28;20033;-73
2023/05/15 02:17:36;;;;;;;18.88;12.63;;;13.40;99.90;;;;;;5060565;28;20033;-75
2023/05/15 02:20:04;;;;;;;17.05;12.57;;;13.30;99.90;;;;;;5060046;28;20059;-75
2023/05/15 02:22:30;;;;;;;17.48;13.10;;;13.20;99.90;;;;;;5063037;28;20052;-74
2023/05/15 02:24:56;;;;;;;17.40;13.10;;;13.20;99.90;;;;;;5063593;28;20032;-75
2023/05/15 02:27:37;;;;;;;18.63;13.82;;;13.20;99.90;;;;;;5062782;28;20405;-75
2023/05/15 02:30:15;;;;;;;18.45;13.70;;;13.10;99.90;;;;;;5062920;28;20052;-75
2023/05/15 02:32:58;;;;;;;21.33;14.00;;;13.10;99.90;;;;;;5064424;28;20028;-75
2023/05/15 02:35:45;;;;;;;18.88;14.02;;;13.00;99.90;;;;;;5062695;28;20037;-76
2023/05/15 02:38:17;;;;;;;24.50;14.60;;;13.00;99.90;;;;;;5063967;28;20037;-76
2023/05/15 02:40:44;;;;;;;19.20;13.07;;;12.90;99.90;;;;;;5062993;28;20028;-75
2023/05/15 02:43:11;;;;;;;18.48;14.32;;;12.90;99.90;;;;;;5063237;28;20055;-76
2023/05/15 02:45:38;;;;;;;18.92;14.50;;;12.90;99.90;;;;;;5062611;28;20118;-75
2023/05/15 02:48:05;;;;;;;25.88;14.95;;;12.90;99.90;;;;;;5061285;28;20123;-75
2023/05/15 02:50:31;;;;;;;19.60;14.70;;;12.80;99.90;;;;;;5063147;28;20496;-74
2023/05/15 02:53:04;;;;;;;19.08;15.02;;;12.70;99.90;;;;;;5063986;28;20081;-77
2023/05/15 02:55:30;;;;;;;21.52;15.27;;;12.70;99.90;;;;;;5062112;28;20021;-75
2023/05/15 02:57:56;;;;;;;19.30;15.13;;;12.60;99.90;;;;;;5062196;28;20076;-74
2023/05/15 03:00:22;;;;;;;19.08;14.48;;;12.50;99.90;;;;;;5062225;28;20028;-75
2023/05/15 03:02:48;;;;;;;25.25;16.35;;;12.50;99.90;;;;;;5061976;28;20024;-75
2023/05/15 03:05:13;;;;;;;23.45;15.88;;;12.50;99.90;;;;;;5061803;28;20025;-75
2023/05/15 03:07:42;;;;;;;20.20;15.15;;;12.40;99.90;;;;;;5062407;28;20029;-76
2023/05/15 03:10:07;;;;;;;24.80;16.23;;;12.40;99.90;;;;;;5063408;28;20058;-74
2023/05/15 03:12:33;;;;;;;22.92;15.68;;;12.40;99.90;;;;;;5063713;28;20112;-74
2023/05/15 03:15:00;;;;;;;20.58;15.52;;;12.30;99.90;;;;;;5061983;28;20045;-74
2023/05/15 03:17:25;;;;;;;22.70;15.63;;;12.40;99.90;;;;;;5061730;28;20029;-75
2023/05/15 03:19:51;;;;;;;23.75;16.17;;;12.30;99.90;;;;;;5063169;28;20551;-76
2023/05/15 03:22:16;;;;;;;27.80;16.15;;;12.20;99.90;;;;;;5063501;28;20040;-75
2023/05/15 03:24:42;;;;;;;24.65;16.98;;;12.20;99.90;;;;;;5063072;28;20029;-75
2023/05/15 03:27:07;;;;;;;24.75;16.25;;;12.20;99.90;;;;;;5061171;28;20024;-75
2023/05/15 03:29:33;;;;;;;21.67;16.17;;;12.20;99.90;;;;;;5062196;28;20084;-75
2023/05/15 03:31:58;;;;;;;22.52;16.80;;;12.20;99.90;;;;;;5062736;28;20017;-75
2023/05/15 03:34:24;;;;;;;20.92;16.35;;;12.00;99.90;;;;;;5060631;28;20028;-75
2023/05/15 03:36:49;;;;;;;27.40;17.25;;;12.10;99.90;;;;;;5063327;28;20088;-74
2023/05/15 03:39:15;;;;;;;23.25;17.48;;;12.10;99.90;;;;;;5062608;28;20021;-76
2023/05/15 03:41:40;;;;;;;23.15;17.42;;;12.10;99.90;;;;;;5062833;28;20379;-75
2023/05/15 03:44:06;;;;;;;25.48;17.23;;;12.10;99.90;;;;;;5060611;28;20029;-75
2023/05/15 03:46:32;;;;;;;26.17;18.67;;;12.10;99.90;;;;;;5062269;28;20025;-76
2023/05/15 03:48:57;;;;;;;23.85;18.48;;;12.10;99.90;;;;;;5061094;28;20055;-75
2023/05/15 03:51:23;;;;;;;29.35;18.60;;;12.10;99.90;;;;;;5061198;28;20029;-74
2023/05/15 03:53:49;;;;;;;24.75;19.35;;;12.00;99.90;;;;;;5062322;28;20081;-75
2023/05/15 03:56:15;;;;;;;30.60;20.27;;;12.00;99.90;;;;;;5062044;28;20116;-74
2023/05/15 03:58:40;;;;;;;30.48;21.30;;;12.00;99.90;;;;;;5062118;28;20061;-74
2023/05/15 04:01:06;;;;;;;32.00;22.02;;;12.00;99.90;;;;;;5062263;28;20064;-74
2023/05/15 04:03:32;;;;;;;32.10;22.20;;;11.90;99.90;;;;;;5061996;28;20052;-75
2023/05/15 04:05:58;;;;;;;40.25;27.08;;;11.90;99.90;;;;;;5061398;28;20473;-72
2023/05/15 04:08:23;;;;;;;43.58;28.35;;;11.90;99.90;;;;;;5060226;28;20037;-75
2023/05/15 04:10:49;;;;;;;42.35;28.77;;;11.90;99.90;;;;;;5061963;28;20047;-74
2023/05/15 04:13:15;;;;;;;44.90;32.08;;;12.00;99.90;;;;;;5063094;28;20021;-75
2023/05/15 04:15:41;;;;;;;46.13;30.88;;;11.90;99.90;;;;;;5061334;28;20389;-75
2023/05/15 04:18:06;;;;;;;52.47;32.55;;;11.90;99.90;;;;;;5061940;28;20047;-74
2023/05/15 04:20:32;;;;;;;52.08;33.60;;;11.90;99.90;;;;;;5061490;28;20114;-76
2023/05/15 04:22:58;;;;;;;47.53;32.92;;;11.90;99.90;;;;;;5060369;28;20025;-73
2023/05/15 04:25:24;;;;;;;51.97;33.67;;;11.90;99.90;;;;;;5061230;28;20123;-74
2023/05/15 04:27:50;;;;;;;50.22;34.35;;;11.90;99.90;;;;;;5062625;28;20040;-73
2023/05/15 04:30:15;;;;;;;53.67;35.15;;;11.90;99.90;;;;;;5060987;28;20063;-73
2023/05/15 04:32:41;;;;;;;57.58;37.25;;;12.00;99.90;;;;;;5062737;28;20112;-74
2023/05/15 04:35:09;;;;;;;58.17;38.92;;;12.00;99.90;;;;;;5062278;28;20035;-74
2023/05/15 04:37:35;;;;;;;62.58;40.30;;;12.10;99.90;;;;;;5060814;28;20071;-73
2023/05/15 04:40:01;;;;;;;63.88;41.78;;;12.10;99.90;;;;;;5060479;28;20021;-74
2023/05/15 04:42:27;;;;;;;67.25;41.17;;;12.20;99.90;;;;;;5060073;28;20036;-72
2023/05/15 04:44:53;;;;;;;68.03;43.33;;;12.20;99.90;;;;;;5061272;28;20021;-73
2023/05/15 04:47:18;;;;;;;68.80;44.22;;;12.20;99.90;;;;;;5062462;28;20121;-73
2023/05/15 04:49:46;;;;;;;69.72;43.95;;;12.30;99.90;;;;;;5062338;28;20041;-74
2023/05/15 04:52:12;;;;;;;71.68;43.95;;;12.30;99.90;;;;;;5062939;28;20032;-74
2023/05/15 04:54:37;;;;;;;75.72;46.95;;;12.40;99.90;;;;;;5062569;28;20389;-74
2023/05/15 04:57:03;;;;;;;77.15;48.10;;;12.40;99.90;;;;;;5060399;28;20040;-72
2023/05/15 04:59:29;;;;;;;81.07;47.85;;;12.50;99.90;;;;;;5062628;28;20043;-73
2023/05/15 05:01:55;;;;;;;82.97;49.53;;;12.50;99.90;;;;;;5061703;28;20021;-73
2023/05/15 05:04:20;;;;;;;83.65;50.63;;;12.50;99.90;;;;;;5060681;28;20060;-73
2023/05/15 05:06:46;;;;;;;81.15;50.10;;;12.50;99.90;;;;;;5060697;28;20048;-74
2023/05/15 05:09:12;;;;;;;83.40;50.50;;;12.50;99.90;;;;;;5061079;28;20099;-73
2023/05/15 05:11:42;;;;;;;83.38;49.08;;;12.60;99.90;;;;;;5062079;28;20032;-75
2023/05/15 05:14:08;;;;;;;81.35;50.45;;;12.60;99.90;;;;;;5061473;28;20024;-74
2023/05/15 05:16:35;;;;;;;82.03;49.55;;;12.60;99.90;;;;;;5060274;28;20028;-75
2023/05/15 05:19:01;;;;;;;82.43;49.25;;;12.70;99.90;;;;;;5062386;28;20029;-74
2023/05/15 05:21:26;;;;;;;84.07;49.97;;;12.70;99.90;;;;;;5059741;28;20100;-73
2023/05/15 05:23:52;;;;;;;77.85;49.15;;;12.80;99.90;;;;;;5061657;28;20036;-74
2023/05/15 05:26:17;;;;;;;79.78;50.17;;;12.80;99.90;;;;;;5060504;28;20030;-73
2023/05/15 05:28:43;;;;;;;76.15;48.17;;;12.90;99.90;;;;;;5060941;28;20041;-74
2023/05/15 05:31:08;;;;;;;76.22;46.83;;;12.90;99.90;;;;;;5060308;28;20036;-73
2023/05/15 05:33:34;;;;;;;74.63;47.17;;;13.10;99.90;;;;;;5059634;28;20089;-74
2023/05/15 05:35:59;;;;;;;74.80;45.80;;;13.10;99.90;;;;;;5061028;28;20025;-73
2023/05/15 05:38:26;;;;;;;68.85;44.63;;;13.20;99.90;;;;;;5061768;28;20033;-74
2023/05/15 05:40:52;;;;;;;69.03;44.88;;;13.20;99.90;;;;;;5059692;28;20025;-73
2023/05/15 05:43:17;;;;;;;72.93;45.65;;;13.30;99.90;;;;;;5056363;28;20033;-74
2023/05/15 05:45:43;;;;;;;74.78;46.90;;;13.40;99.90;;;;;;5057956;28;20037;-73
2023/05/15 05:48:09;;;;;;;70.68;45.63;;;13.40;99.90;;;;;;5059777;28;20401;-73
2023/05/15 05:50:34;;;;;;;73.50;46.78;;;13.50;99.90;;;;;;5060387;28;20033;-74
2023/05/15 05:53:00;;;;;;;70.97;44.25;;;13.50;99.90;;;;;;5061567;28;20044;-73
2023/05/15 05:55:25;;;;;;;74.10;46.38;;;13.50;99.90;;;;;;5058720;28;20029;-76
2023/05/15 05:57:51;;;;;;;76.60;45.67;;;13.60;99.90;;;;;;5059985;28;20024;-73
2023/05/15 06:00:17;;;;;;;69.95;44.72;;;13.60;99.90;;;;;;5060489;28;20132;-74
2023/05/15 06:02:43;;;;;;;75.80;46.58;;;13.60;99.90;;;;;;5059622;28;20036;-73
2023/05/15 06:05:09;;;;;;;73.22;46.35;;;13.70;99.90;;;;;;5058995;28;20048;-73
2023/05/15 06:07:34;;;;;;;68.72;46.58;;;13.70;99.90;;;;;;5060179;28;20035;-73
2023/05/15 06:10:00;;;;;;;75.07;47.80;;;13.80;99.90;;;;;;5059778;28;20037;-73
2023/05/15 06:12:26;;;;;;;73.43;47.33;;;13.80;99.90;;;;;;5059885;28;20470;-70
2023/05/15 06:14:52;;;;;;;71.68;46.97;;;13.90;99.90;;;;;;5061486;28;20043;-72
2023/05/15 06:17:18;;;;;;;75.72;46.50;;;13.90;99.90;;;;;;5061313;28;20084;-74
2023/05/15 06:19:43;;;;;;;80.55;48.55;;;14.00;99.90;;;;;;5060629;28;20025;-75
2023/05/15 06:22:09;;;;;;;75.00;46.33;;;13.90;99.90;;;;;;5060189;28;20032;-74
2023/05/15 06:24:35;;;;;;;76.45;47.47;;;13.90;99.90;;;;;;5060450;28;20104;-74
2023/05/15 06:27:00;;;;;;;75.55;48.60;;;14.00;99.90;;;;;;5061370;28;20047;-74
2023/05/15 06:29:26;;;;;;;75.60;47.45;;;14.00;99.90;;;;;;5061204;28;20080;-74
2023/05/15 06:31:52;;;;;;;79.72;50.05;;;14.00;99.90;;;;;;5060475;28;20025;-75
2023/05/15 06:34:17;;;;;;;74.03;48.05;;;14.00;99.90;;;;;;5060249;28;20047;-73
2023/05/15 06:36:43;;;;;;;83.60;50.17;;;14.00;99.90;;;;;;5061395;28;20557;-75
2023/05/15 06:39:09;;;;;;;85.53;49.08;;;14.10;99.90;;;;;;5059996;28;20021;-71
2023/05/15 06:41:36;;;;;;;78.68;47.10;;;14.00;99.90;;;;;;5060487;28;20021;-74
2023/05/15 06:44:02;;;;;;;84.43;49.55;;;14.10;99.90;;;;;;5061602;28;20025;-71
2023/05/15 06:46:27;;;;;;;80.30;46.58;;;14.10;99.90;;;;;;5060997;28;20040;-74
2023/05/15 06:48:53;;;;;;;76.93;43.42;;;14.00;99.90;;;;;;5061396;28;20057;-73
2023/05/15 06:51:18;;;;;;;78.07;42.67;;;14.10;99.90;;;;;;5060263;28;20056;-74
2023/05/15 06:53:44;;;;;;;78.38;43.63;;;14.10;99.90;;;;;;5059053;28;20056;-75
2023/05/15 06:56:09;;;;;;;72.97;39.63;;;14.30;99.90;;;;;;5061584;28;20021;-74
2023/05/15 06:58:35;;;;;;;69.65;40.00;;;14.40;99.90;;;;;;5060076;28;20040;-74
2023/05/15 07:01:02;;;;;;;69.90;41.40;;;14.40;99.90;;;;;;5060888;28;20139;-73
2023/05/15 07:03:28;;;;;;;64.40;37.10;;;14.50;99.90;;;;;;5061194;28;20025;-69
2023/05/15 07:05:54;;;;;;;68.80;38.28;;;14.50;99.90;;;;;;5061396;28;20470;-70
2023/05/15 07:08:20;;;;;;;64.45;36.13;;;14.40;99.90;;;;;;5060554;28;20021;-75
2023/05/15 07:10:45;;;;;;;59.80;35.58;;;14.30;99.90;;;;;;5063649;28;20029;-74
2023/05/15 07:13:11;;;;;;;59.67;35.05;;;14.30;99.90;;;;;;5063584;28;20029;-70
2023/05/15 07:15:36;;;;;;;61.78;35.83;;;14.30;99.90;;;;;;5063486;28;20162;-71
2023/05/15 07:18:02;;;;;;;59.25;34.50;;;14.30;99.90;;;;;;5064840;28;20043;-74
2023/05/15 07:20:28;;;;;;;54.20;33.47;;;14.30;99.90;;;;;;5063300;28;20104;-74
2023/05/15 07:22:53;;;;;;;60.17;35.05;;;14.20;99.90;;;;;;5064292;28;20021;-74
2023/05/15 07:25:19;;;;;;;58.47;35.20;;;14.20;99.90;;;;;;5061014;28;20024;-73
2023/05/15 07:27:44;;;;;;;53.58;33.40;;;14.20;99.90;;;;;;5062698;28;20025;-74
2023/05/15 07:30:10;;;;;;;57.25;34.10;;;14.40;99.90;;;;;;5062175;28;20033;-77
2023/05/15 07:32:36;;;;;;;51.78;32.75;;;14.50;99.90;;;;;;5062778;28;21543;-74
2023/05/15 07:35:03;;;;;;;54.40;33.15;;;14.50;99.90;;;;;;5060353;28;20025;-75
2023/05/15 07:37:29;;;;;;;57.80;34.30;;;14.50;99.90;;;;;;5062114;28;20033;-69
2023/05/15 07:39:55;;;;;;;57.20;32.13;;;14.60;99.90;;;;;;5063491;28;20044;-73
2023/05/15 07:42:21;;;;;;;56.13;33.95;;;14.70;99.90;;;;;;5063923;28;20462;-74
2023/05/15 07:44:46;;;;;;;55.03;32.85;;;14.80;99.90;;;;;;5062626;28;20081;-74
2023/05/15 07:47:12;;;;;;;52.78;32.70;;;14.90;99.90;;;;;;5063593;28;20021;-73
2023/05/15 07:49:37;;;;;;;58.00;34.70;;;15.00;99.90;;;;;;5063767;28;20045;-73
2023/05/15 07:52:03;;;;;;;55.55;34.17;;;15.10;99.90;;;;;;5062753;28;20028;-73
2023/05/15 07:54:30;;;;;;;51.40;32.85;;;15.10;99.90;;;;;;5062953;28;20040;-72
2023/05/15 07:56:57;;;;;;;54.53;34.25;;;15.20;99.90;;;;;;5063549;28;20094;-72
2023/05/15 07:59:23;;;;;;;49.03;32.17;;;15.30;99.90;;;;;;5061527;28;20112;-71
2023/05/15 08:01:48;;;;;;;51.63;32.30;;;15.40;99.90;;;;;;5063599;28;20090;-71
2023/05/15 08:04:14;;;;;;;46.83;30.63;;;15.60;99.90;;;;;;5062855;28;20120;-70
2023/05/15 08:06:41;;;;;;;50.85;32.00;;;15.50;99.90;;;;;;5062886;28;20013;-72
2023/05/15 08:09:08;;;;;;;48.15;30.80;;;15.50;99.90;;;;;;5062148;28;20040;-73
2023/05/15 08:11:34;;;;;;;42.47;28.40;;;15.60;99.90;;;;;;5061170;28;20727;-74
2023/05/15 08:13:59;;;;;;;53.88;32.42;;;15.70;99.90;;;;;;5057164;28;20017;-72
2023/05/15 08:16:25;;;;;;;46.97;31.73;;;15.80;99.90;;;;;;5057298;28;20050;-74
2023/05/15 08:18:52;;;;;;;47.63;31.58;;;15.80;99.90;;;;;;5059200;28;20428;-72
2023/05/15 08:21:18;;;;;;;37.78;26.20;;;15.80;99.90;;;;;;5061581;28;20091;-72
2023/05/15 08:23:43;;;;;;;48.30;31.33;;;16.00;99.90;;;;;;5062697;28;20093;-71
2023/05/15 08:26:09;;;;;;;50.20;31.40;;;16.10;99.90;;;;;;5062668;28;20021;-70
2023/05/15 08:28:34;;;;;;;50.25;32.25;;;16.20;99.90;;;;;;5062168;28;20029;-71
2023/05/15 08:31:00;;;;;;;48.05;29.83;;;16.30;99.90;;;;;;5062199;28;20107;-73
2023/05/15 08:33:26;;;;;;;49.20;31.70;;;16.40;99.90;;;;;;5062994;28;20532;-73
2023/05/15 08:35:52;;;;;;;48.60;30.92;;;16.50;99.90;;;;;;5063072;28;20496;-73
2023/05/15 08:38:17;;;;;;;48.05;31.13;;;16.60;99.90;;;;;;5063044;28;20071;-72
2023/05/15 08:40:46;;;;;;;43.47;28.85;;;16.50;99.90;;;;;;5059512;28;20025;-73
2023/05/15 08:43:14;;;;;;;42.05;27.88;;;16.70;99.90;;;;;;5062488;28;20465;-74
2023/05/15 08:45:40;;;;;;;40.47;25.38;;;16.80;99.90;;;;;;5062572;28;20782;-71
2023/05/15 08:48:28;;;;;;;36.00;25.65;;;16.90;99.90;;;;;;5061910;28;20140;-75
2023/05/15 08:50:56;;;;;;;35.03;24.85;;;17.10;99.90;;;;;;5061453;28;20037;-73
2023/05/15 08:53:22;;;;;;;38.40;23.58;;;17.20;99.90;;;;;;5061117;28;20036;-74
2023/05/15 08:55:49;;;;;;;33.92;24.08;;;17.40;99.90;;;;;;5062264;28;20028;-72
2023/05/15 08:58:15;;;;;;;30.10;23.02;;;17.40;99.90;;;;;;5061332;28;20017;-73
2023/05/15 09:00:41;;;;;;;31.40;22.73;;;17.50;99.90;;;;;;5061082;28;20021;-73
2023/05/15 09:03:13;;;;;;;34.03;21.77;;;17.60;99.90;;;;;;5062598;28;20025;-74
2023/05/15 09:05:39;;;;;;;29.83;21.70;;;17.70;99.90;;;;;;5061109;28;20017;-71
2023/05/15 09:08:07;;;;;;;31.23;21.42;;;17.70;99.90;;;;;;5062401;28;20127;-74
2023/05/15 09:10:34;;;;;;;31.95;21.20;;;17.70;99.90;;;;;;5059160;28;20047;-72
2023/05/15 09:13:01;;;;;;;26.70;19.85;;;17.90;99.90;;;;;;5057833;28;20037;-71
2023/05/15 09:15:27;;;;;;;29.23;22.33;;;18.00;99.90;;;;;;5058228;28;20047;-72
2023/05/15 09:17:53;;;;;;;34.65;22.65;;;18.00;99.90;;;;;;5060875;28;20072;-70
2023/05/15 09:20:30;;;;;;;32.90;23.25;;;18.10;99.90;;;;;;5056826;28;20053;-72
2023/05/15 09:22:57;;;;;;;36.67;23.40;;;18.10;99.90;;;;;;5060230;28;20036;-72
2023/05/15 09:25:43;;;;;;;29.83;21.10;;;18.20;99.90;;;;;;5062006;28;20025;-71
2023/05/15 09:28:28;;;;;;;32.30;23.70;;;18.30;99.90;;;;;;5059885;28;20056;-73
2023/05/15 09:31:02;;;;;;;32.25;21.25;;;18.30;99.90;;;;;;5060795;28;20033;-71
2023/05/15 09:33:33;;;;;;;35.85;23.02;;;18.40;99.90;;;;;;5060975;28;20029;-72
2023/05/15 09:36:00;;;;;;;40.55;25.15;;;18.40;99.90;;;;;;5059012;28;20087;-71
2023/05/15 09:38:29;;;;;;;38.55;24.30;;;18.50;99.90;;;;;;5061592;28;20013;-71
2023/05/15 09:41:06;;;;;;;38.50;26.10;;;18.50;99.90;;;;;;5054138;28;20025;-68
2023/05/15 09:43:39;;;;;;;33.63;24.70;;;18.50;99.90;;;;;;5058132;28;20385;-70
2023/05/15 09:46:07;;;;;;;30.33;23.05;;;18.50;99.90;;;;;;5060223;28;20025;-73
2023/05/15 09:48:33;;;;;;;34.40;23.05;;;18.60;99.90;;;;;;5061573;28;20076;-74
2023/05/15 09:51:01;;;;;;;32.95;22.70;;;18.70;99.90;;;;;;5061407;28;20095;-69
2023/05/15 09:53:28;;;;;;;32.63;24.27;;;18.70;99.90;;;;;;5061706;28;20037;-73
2023/05/15 09:55:54;;;;;;;31.45;22.15;;;18.80;99.90;;;;;;5059365;28;20060;-73
2023/05/15 09:58:20;;;;;;;33.58;23.08;;;18.80;99.90;;;;;;5061670;28;20054;-72
2023/05/15 10:00:46;;;;;;;36.72;24.92;;;18.90;99.90;;;;;;5061924;28;20029;-72
2023/05/15 10:03:12;;;;;;;38.97;25.85;;;19.00;99.90;;;;;;5059420;28;20025;-70
2023/05/15 10:05:38;;;;;;;37.33;25.05;;;19.10;99.90;;;;;;5061025;28;20077;-71
2023/05/15 10:08:04;;;;;;;34.90;24.23;;;19.10;99.90;;;;;;5061949;28;20025;-69
2023/05/15 10:10:31;;;;;;;34.85;22.73;;;19.10;99.90;;;;;;5058475;28;20036;-76
2023/05/15 10:13:01;;;;;;;34.17;23.35;;;19.10;99.90;;;;;;5060433;28;20048;-71
2023/05/15 10:15:27;;;;;;;32.33;22.85;;;19.10;99.90;;;;;;5060204;28;20032;-74
2023/05/15 10:17:53;;;;;;;32.75;23.65;;;19.00;99.90;;;;;;5059597;28;20848;-74
2023/05/15 10:20:22;;;;;;;35.30;23.02;;;19.10;99.90;;;;;;5060364;28;20020;-69
2023/05/15 10:22:53;;;;;;;31.95;23.70;;;19.10;99.90;;;;;;5059839;28;20029;-70
2023/05/15 10:25:45;;;;;;;35.75;24.55;;;19.10;99.90;;;;;;5058055;28;20025;-68
2023/05/15 10:28:11;;;;;;;33.08;21.88;;;19.20;99.90;;;;;;5050497;28;20037;-71
2023/05/15 10:30:38;;;;;;;38.72;22.55;;;19.20;99.90;;;;;;5061106;28;20024;-72
2023/05/15 10:33:05;;;;;;;35.45;23.85;;;19.30;99.90;;;;;;5059952;28;20021;-70
2023/05/15 10:35:31;;;;;;;29.23;20.80;;;19.50;99.90;;;;;;5060345;28;20021;-69
2023/05/15 10:37:56;;;;;;;29.95;21.40;;;19.50;99.90;;;;;;5061083;28;20071;-72
2023/05/15 10:40:23;;;;;;;30.73;20.80;;;19.60;99.90;;;;;;5058878;28;20033;-72
2023/05/15 10:42:49;;;;;;;29.73;19.10;;;19.50;99.90;;;;;;5061570;28;20099;-72
2023/05/15 10:45:15;;;;;;;31.67;21.88;;;19.60;99.90;;;;;;5064941;28;20017;-71
2023/05/15 10:47:42;;;;;;;26.77;20.10;;;19.60;99.90;;;;;;5064712;28;20107;-70
2023/05/15 10:50:10;;;;;;;28.83;19.02;;;19.60;99.90;;;;;;5064482;28;20105;-71
2023/05/15 10:52:37;;;;;;;29.60;18.80;;;19.60;99.90;;;;;;5063858;28;20036;-71
2023/05/15 10:55:15;;;;;;;28.13;20.80;;;19.70;99.90;;;;;;5060854;28;20477;-74
2023/05/15 10:57:41;;;;;;;30.33;21.40;;;19.70;99.90;;;;;;5062008;28;20060;-72
2023/05/15 11:00:39;;;;;;;31.80;21.35;;;19.70;99.90;;;;;;5062557;28;20033;-68
2023/05/15 11:03:05;;;;;;;29.60;19.17;;;19.70;99.90;;;;;;5059816;28;20037;-70
2023/05/15 11:06:06;;;;;;;30.77;21.05;;;19.70;99.90;;;;;;5063257;28;20061;-68
2023/05/15 11:08:31;;;;;;;26.67;18.90;;;19.70;99.90;;;;;;5063678;28;20057;-71
2023/05/15 11:10:57;;;;;;;26.50;18.70;;;19.80;99.90;;;;;;5064741;28;20033;-72
2023/05/15 11:13:22;;;;;;;31.00;21.15;;;19.90;99.90;;;;;;5064183;28;20064;-70
2023/05/15 11:15:48;;;;;;;25.50;18.40;;;19.90;99.90;;;;;;5062599;28;20036;-71
2023/05/15 11:18:14;;;;;;;24.98;16.70;;;19.90;99.90;;;;;;5064358;28;20496;-72
2023/05/15 11:20:50;;;;;;;24.75;18.13;;;19.90;99.90;;;;;;5064034;28;20482;-74
2023/05/15 11:23:20;;;;;;;23.75;16.88;;;20.00;99.90;;;;;;5063302;28;20033;-73
2023/05/15 11:25:52;;;;;;;21.55;15.07;;;20.10;99.90;;;;;;5063778;28;20021;-69
2023/05/15 11:28:22;;;;;;;19.63;13.10;;;20.20;99.90;;;;;;5063264;28;20028;-69
2023/05/15 11:30:51;;;;;;;18.73;12.57;;;20.40;99.90;;;;;;5061837;28;20041;-73
2023/05/15 11:33:18;;;;;;;22.25;14.55;;;20.30;99.90;;;;;;5063354;28;20043;-70
2023/05/15 11:35:46;;;;;;;19.02;12.63;;;20.40;99.90;;;;;;5060767;28;20033;-70
2023/05/15 11:38:21;;;;;;;14.93;11.23;;;20.40;99.90;;;;;;5059301;28;20044;-69
2023/05/15 11:40:47;;;;;;;15.68;10.10;;;20.50;99.90;;;;;;5058162;28;20043;-74
2023/05/15 11:43:27;;;;;;;15.43;11.85;;;20.60;99.90;;;;;;5060001;28;20027;-69
2023/05/15 11:45:56;;;;;;;16.20;11.00;;;20.70;99.90;;;;;;5060283;28;20041;-72
2023/05/15 11:48:30;;;;;;;16.80;13.02;;;20.60;99.90;;;;;;5062085;28;20060;-73
2023/05/15 11:50:55;;;;;;;15.98;12.45;;;20.60;99.90;;;;;;5059170;28;20033;-70
2023/05/15 11:53:22;;;;;;;19.67;13.93;;;20.60;99.90;;;;;;5046964;28;20052;-70
2023/05/15 11:55:51;;;;;;;16.67;11.93;;;20.70;99.90;;;;;;5061529;28;20013;-71
2023/05/15 11:58:18;;;;;;;20.52;13.15;;;20.70;99.90;;;;;;5061688;28;20509;-71
2023/05/15 12:00:45;;;;;;;18.42;14.00;;;20.70;99.90;;;;;;5059891;28;20021;-68
2023/05/15 12:03:17;;;;;;;16.83;13.15;;;20.70;99.90;;;;;;5061933;28;20093;-70
2023/05/15 12:05:43;;;;;;;24.42;15.57;;;20.80;99.90;;;;;;5062000;28;20025;-67
2023/05/15 12:08:11;;;;;;;17.40;13.52;;;20.90;99.90;;;;;;5061620;28;20027;-72
2023/05/15 12:10:44;;;;;;;15.23;11.98;;;20.90;99.90;;;;;;5062032;28;20039;-73
2023/05/15 12:13:13;;;;;;;13.40;10.10;;;20.90;99.90;;;;;;5063703;28;20063;-72
2023/05/15 12:15:41;;;;;;;17.60;11.88;;;20.90;99.90;;;;;;5063090;28;20032;-70
2023/05/15 12:18:07;;;;;;;19.80;13.32;;;21.10;99.90;;;;;;5063374;28;20070;-72
2023/05/15 12:20:34;;;;;;;23.20;11.98;;;21.10;99.90;;;;;;5063102;28;20025;-73
2023/05/15 12:23:04;;;;;;;18.40;12.70;;;21.10;99.90;;;;;;5063371;28;20462;-71
2023/05/15 12:25:31;;;;;;;22.98;13.10;;;21.20;99.90;;;;;;5063155;28;20128;-69
2023/05/15 12:27:58;;;;;;;14.88;11.93;;;21.30;99.90;;;;;;5063367;28;20093;-73
2023/05/15 12:30:24;;;;;;;17.00;12.77;;;21.40;99.90;;;;;;5062526;28;20667;-73
2023/05/15 12:32:50;;;;;;;17.75;12.73;;;21.30;99.90;;;;;;5063330;28;20052;-68